Time;durP1;ratioP1;P1;durP2;ratioP2;P2;SDS_P1;SDS_P2;PMS_P1;PMS_P2;Temp;Humidity;BMP_temperature;BMP_pressure;BME280_temperature;BME280_humidity;BME280_pressure;Samples;Min_cycle;Max_cycle;Signal;HPM_P1;HPM_P2
2021/11/23 00:01:20;;;;;;;27.00;11.93;;;;;;;;;;5034806;28;20113;-87
2021/11/23 00:03:45;;;;;;;25.27;11.83;;;;;;;;;;5034889;28;20032;-87
2021/11/23 00:06:11;;;;;;;26.93;11.83;;;;;;;;;;5036294;28;20449;-87
2021/11/23 00:08:36;;;;;;;28.57;11.57;;;;;;;;;;5034791;28;20104;-87
2021/11/23 00:11:01;;;;;;;25.80;11.87;;;;;;;;;;5035973;28;20022;-87
2021/11/23 00:13:27;;;;;;;26.73;10.87;;;;;;;;;;5034760;28;20620;-87
2021/11/23 00:15:52;;;;;;;25.27;10.90;;;;;;;;;;5034498;28;20014;-86
2021/11/23 00:18:17;;;;;;;25.60;10.43;;;;;;;;;;5034526;28;20105;-87
2021/11/23 00:20:43;;;;;;;25.43;10.73;;;;;;;;;;5034274;28;20469;-87
2021/11/23 00:23:09;;;;;;;37.30;11.83;;;;;;;;;;5035638;28;20017;-87
2021/11/23 00:25:34;;;;;;;26.57;11.30;;;;;;;;;;5034646;28;20047;-87
2021/11/23 00:28:00;;;;;;;29.70;12.27;;;;;;;;;;5034464;28;20022;-87
2021/11/23 00:30:30;;;;;;;31.83;12.03;;;;;;;;;;5033958;28;20025;-86
2021/11/23 00:32:55;;;;;;;24.23;10.77;;;;;;;;;;5034239;28;20100;-87
2021/11/23 00:35:21;;;;;;;24.10;10.33;;;;;;;;;;5034509;28;20045;-87
2021/11/23 00:37:47;;;;;;;23.17;10.20;;;;;;;;;;5034369;28;20856;-87
2021/11/23 00:40:13;;;;;;;21.53;10.10;;;;;;;;;;5034445;28;20117;-87
2021/11/23 00:42:38;;;;;;;24.20;10.27;;;;;;;;;;5035496;28;20041;-87
2021/11/23 00:45:04;;;;;;;21.03;9.97;;;;;;;;;;5034402;28;20041;-87
2021/11/23 00:47:29;;;;;;;27.77;11.50;;;;;;;;;;5067405;28;20112;-87
2021/11/23 00:49:54;;;;;;;27.23;10.90;;;;;;;;;;5035229;28;20078;-87
2021/11/23 00:52:19;;;;;;;31.20;10.63;;;;;;;;;;5035418;28;20021;-87
2021/11/23 00:54:45;;;;;;;23.13;10.40;;;;;;;;;;5033855;28;20395;-87
2021/11/23 00:57:10;;;;;;;27.27;11.97;;;;;;;;;;5034089;28;20021;-87
2021/11/23 00:59:38;;;;;;;35.20;11.80;;;;;;;;;;5033834;28;20045;-87
2021/11/23 01:02:03;;;;;;;25.90;11.67;;;;;;;;;;5033822;28;20009;-87
2021/11/23 01:04:28;;;;;;;23.17;10.17;;;;;;;;;;5025085;28;20029;-87
2021/11/23 01:06:54;;;;;;;29.03;12.00;;;;;;;;;;5027740;28;20120;-87
2021/11/23 01:09:19;;;;;;;34.23;11.40;;;;;;;;;;5020697;28;20078;-87
2021/11/23 01:11:44;;;;;;;31.90;12.37;;;;;;;;;;5033773;28;20449;-87
2021/11/23 01:14:09;;;;;;;30.03;12.03;;;;;;;;;;5035006;28;20037;-87
2021/11/23 01:16:35;;;;;;;26.80;10.43;;;;;;;;;;5033520;28;20017;-87
2021/11/23 01:19:01;;;;;;;23.30;10.67;;;;;;;;;;5025988;28;20028;-87
2021/11/23 01:21:26;;;;;;;29.60;11.23;;;;;;;;;;5033640;28;20025;-87
2021/11/23 01:23:53;;;;;;;28.27;10.87;;;;;;;;;;5034763;28;20014;-87
2021/11/23 01:26:19;;;;;;;29.87;11.17;;;;;;;;;;5032905;28;20029;-87
2021/11/23 01:28:44;;;;;;;33.50;11.63;;;;;;;;;;5033368;28;20083;-87
2021/11/23 01:31:09;;;;;;;25.97;11.50;;;;;;;;;;5033517;28;20036;-87
2021/11/23 01:33:34;;;;;;;25.73;10.90;;;;;;;;;;5033592;28;20035;-87
2021/11/23 01:35:59;;;;;;;31.03;10.90;;;;;;;;;;5033007;28;20064;-87
2021/11/23 01:38:25;;;;;;;25.70;10.83;;;;;;;;;;5033258;28;20415;-87
2021/11/23 01:40:50;;;;;;;24.80;10.50;;;;;;;;;;5032982;28;20029;-87
2021/11/23 01:43:15;;;;;;;21.27;10.83;;;;;;;;;;5033089;28;20029;-87
2021/11/23 01:45:41;;;;;;;25.40;10.60;;;;;;;;;;5032861;28;20029;-87
2021/11/23 01:48:07;;;;;;;19.90;9.87;;;;;;;;;;5032982;28;20155;-87
2021/11/23 01:50:32;;;;;;;27.17;10.20;;;;;;;;;;5066291;28;20024;-87
2021/11/23 01:52:59;;;;;;;26.07;10.67;;;;;;;;;;5033019;28;20024;-87
2021/11/23 01:55:24;;;;;;;24.63;10.40;;;;;;;;;;5032922;28;20029;-87
2021/11/23 01:57:50;;;;;;;26.00;10.47;;;;;;;;;;5033929;28;20619;-87
2021/11/23 02:00:16;;;;;;;22.40;9.30;;;;;;;;;;5032759;28;20430;-87
2021/11/23 02:02:42;;;;;;;20.77;9.50;;;;;;;;;;5033715;28;20436;-87
2021/11/23 02:05:07;;;;;;;19.73;8.77;;;;;;;;;;5020416;28;20044;-87
2021/11/23 02:07:32;;;;;;;27.57;9.80;;;;;;;;;;5065856;28;20067;-87
2021/11/23 02:09:58;;;;;;;23.60;9.63;;;;;;;;;;5033629;28;20071;-87
2021/11/23 02:12:23;;;;;;;21.80;10.30;;;;;;;;;;5065966;28;20385;-87
2021/11/23 02:14:48;;;;;;;31.77;11.13;;;;;;;;;;5018507;28;20465;-87
2021/11/23 02:17:14;;;;;;;23.57;10.73;;;;;;;;;;5033560;28;20420;-87
2021/11/23 02:19:44;;;;;;;31.53;12.50;;;;;;;;;;5033307;28;20021;-87
2021/11/23 02:22:09;;;;;;;30.07;11.93;;;;;;;;;;5031650;28;20071;-87
2021/11/23 02:24:35;;;;;;;31.03;12.30;;;;;;;;;;5045600;28;20018;-87
2021/11/23 02:27:01;;;;;;;31.00;12.63;;;;;;;;;;5045587;28;20029;-87
2021/11/23 02:29:26;;;;;;;32.73;13.57;;;;;;;;;;5045271;28;20040;-87
2021/11/23 02:31:51;;;;;;;29.00;12.57;;;;;;;;;;5046903;28;20029;-87
2021/11/23 02:34:16;;;;;;;31.27;13.07;;;;;;;;;;5032417;28;20401;-87
2021/11/23 02:36:42;;;;;;;26.53;11.77;;;;;;;;;;5033445;28;20017;-87
2021/11/23 02:39:07;;;;;;;28.67;12.60;;;;;;;;;;5032056;28;20028;-87
2021/11/23 02:41:32;;;;;;;31.03;12.57;;;;;;;;;;5032209;28;20013;-88
2021/11/23 02:43:58;;;;;;;28.60;12.90;;;;;;;;;;5031751;28;20021;-87
2021/11/23 02:46:24;;;;;;;26.43;11.23;;;;;;;;;;5032201;28;20473;-87
2021/11/23 02:48:49;;;;;;;28.47;12.43;;;;;;;;;;5031665;28;20511;-87
2021/11/23 02:51:15;;;;;;;32.23;12.57;;;;;;;;;;5031865;28;20087;-87
2021/11/23 02:53:45;;;;;;;29.33;11.87;;;;;;;;;;5032023;28;20381;-87
2021/11/23 02:56:11;;;;;;;27.77;12.33;;;;;;;;;;5031956;28;20026;-87
2021/11/23 02:58:36;;;;;;;29.07;13.03;;;;;;;;;;5031863;28;20530;-87
2021/11/23 03:01:04;;;;;;;26.30;12.70;;;;;;;;;;5031821;28;20070;-87
2021/11/23 03:03:29;;;;;;;26.57;13.17;;;;;;;;;;5031831;28;20030;-87
2021/11/23 03:05:56;;;;;;;30.47;12.80;;;;;;;;;;5031615;28;20156;-87
2021/11/23 03:08:21;;;;;;;35.07;12.20;;;;;;;;;;5031996;28;20104;-86
2021/11/23 03:10:46;;;;;;;28.50;12.43;;;;;;;;;;5033131;28;20121;-87
2021/11/23 03:13:12;;;;;;;34.57;12.93;;;;;;;;;;5031620;28;20017;-87
2021/11/23 03:15:37;;;;;;;28.70;11.70;;;;;;;;;;5031628;28;20017;-87
2021/11/23 03:18:02;;;;;;;32.23;11.73;;;;;;;;;;5033517;28;20057;-87
2021/11/23 03:20:28;;;;;;;32.10;13.07;;;;;;;;;;5031961;28;20109;-87
2021/11/23 03:22:55;;;;;;;28.13;12.60;;;;;;;;;;5033306;28;20022;-87
2021/11/23 03:25:20;;;;;;;27.83;11.03;;;;;;;;;;5032763;28;20025;-87
2021/11/23 03:27:46;;;;;;;24.00;11.23;;;;;;;;;;5031873;28;20098;-87
2021/11/23 03:30:12;;;;;;;29.73;12.00;;;;;;;;;;5031270;28;20537;-87
2021/11/23 03:32:38;;;;;;;25.17;12.23;;;;;;;;;;5031685;28;20018;-87
2021/11/23 03:35:03;;;;;;;23.87;11.13;;;;;;;;;;5036831;28;20457;-87
2021/11/23 03:37:29;;;;;;;30.30;11.57;;;;;;;;;;5035380;28;20461;-86
2021/11/23 03:39:55;;;;;;;25.47;11.83;;;;;;;;;;5036937;28;20476;-87
2021/11/23 03:42:20;;;;;;;26.40;11.27;;;;;;;;;;5035222;28;20067;-87
2021/11/23 03:44:45;;;;;;;26.37;11.60;;;;;;;;;;5035261;28;20024;-87
2021/11/23 03:47:11;;;;;;;27.53;12.73;;;;;;;;;;5034634;28;20025;-87
2021/11/23 03:49:37;;;;;;;25.37;11.67;;;;;;;;;;5035270;28;20370;-87
2021/11/23 03:52:02;;;;;;;22.70;10.77;;;;;;;;;;5035354;28;20049;-87
2021/11/23 03:54:28;;;;;;;27.30;11.90;;;;;;;;;;5035171;28;20047;-87
2021/11/23 03:56:53;;;;;;;29.93;11.20;;;;;;;;;;5035093;28;20021;-87
2021/11/23 03:59:18;;;;;;;30.93;11.57;;;;;;;;;;5034861;28;20013;-87
2021/11/23 04:01:44;;;;;;;26.47;11.17;;;;;;;;;;5034953;28;20746;-87
2021/11/23 04:04:09;;;;;;;26.80;10.83;;;;;;;;;;5035971;28;20045;-87
2021/11/23 04:06:34;;;;;;;30.27;11.77;;;;;;;;;;5027840;28;20032;-87
2021/11/23 04:08:59;;;;;;;33.10;12.50;;;;;;;;;;5028136;28;20033;-87
2021/11/23 04:11:25;;;;;;;28.23;11.13;;;;;;;;;;5034919;28;20018;-87
2021/11/23 04:13:50;;;;;;;28.07;12.03;;;;;;;;;;5034858;28;20021;-86
2021/11/23 04:16:17;;;;;;;22.10;10.70;;;;;;;;;;5034644;28;20025;-87
2021/11/23 04:18:42;;;;;;;31.70;12.60;;;;;;;;;;5034305;28;20021;-87
2021/11/23 04:21:08;;;;;;;23.97;11.60;;;;;;;;;;5034685;28;20018;-86
2021/11/23 04:23:33;;;;;;;22.10;11.13;;;;;;;;;;5034361;28;20582;-87
2021/11/23 04:25:58;;;;;;;21.93;10.83;;;;;;;;;;5035871;28;20041;-86
2021/11/23 04:28:23;;;;;;;25.93;11.53;;;;;;;;;;5034310;28;20489;-86
2021/11/23 04:30:48;;;;;;;24.50;11.57;;;;;;;;;;5034508;28;20382;-86
2021/11/23 04:33:14;;;;;;;27.40;11.63;;;;;;;;;;5034535;28;20411;-86
2021/11/23 04:35:43;;;;;;;24.97;11.90;;;;;;;;;;5034113;28;20538;-87
2021/11/23 04:38:09;;;;;;;28.37;12.30;;;;;;;;;;5034217;28;20057;-87
2021/11/23 04:40:34;;;;;;;32.77;12.60;;;;;;;;;;5034079;28;20041;-87
2021/11/23 04:43:01;;;;;;;23.83;11.97;;;;;;;;;;5034272;28;20397;-86
2021/11/23 04:45:27;;;;;;;29.30;12.40;;;;;;;;;;5033500;28;20030;-86
2021/11/23 04:47:52;;;;;;;28.50;12.43;;;;;;;;;;5033807;28;20025;-86
2021/11/23 04:50:17;;;;;;;25.50;12.33;;;;;;;;;;5035418;28;20045;-86
2021/11/23 04:52:42;;;;;;;25.47;11.73;;;;;;;;;;5033877;28;20025;-86
2021/11/23 04:55:08;;;;;;;24.93;11.43;;;;;;;;;;5033905;28;20032;-86
2021/11/23 04:57:33;;;;;;;28.20;11.80;;;;;;;;;;5034003;28;20029;-86
2021/11/23 05:00:00;;;;;;;29.77;11.20;;;;;;;;;;5033834;28;20107;-86
2021/11/23 05:02:25;;;;;;;29.80;11.80;;;;;;;;;;5034084;28;20027;-86
2021/11/23 05:04:50;;;;;;;25.93;10.33;;;;;;;;;;5033870;28;20372;-87
2021/11/23 05:07:16;;;;;;;21.27;10.67;;;;;;;;;;5033872;28;20037;-86
2021/11/23 05:09:41;;;;;;;28.13;10.40;;;;;;;;;;5033737;28;20052;-87
2021/11/23 05:12:06;;;;;;;19.83;9.73;;;;;;;;;;5033090;28;20115;-86
2021/11/23 05:14:32;;;;;;;24.97;9.47;;;;;;;;;;5034721;28;20053;-86
2021/11/23 05:16:57;;;;;;;17.93;9.43;;;;;;;;;;5066746;28;20065;-86
2021/11/23 05:19:22;;;;;;;22.33;10.07;;;;;;;;;;5034430;28;20523;-86
2021/11/23 05:21:47;;;;;;;20.97;10.23;;;;;;;;;;5033413;28;20021;-86
2021/11/23 05:24:14;;;;;;;24.17;10.57;;;;;;;;;;5033550;28;20025;-86
2021/11/23 05:26:39;;;;;;;25.30;10.87;;;;;;;;;;5033352;28;20049;-86
2021/11/23 05:29:05;;;;;;;22.77;10.50;;;;;;;;;;5034671;28;20420;-86
2021/11/23 05:31:30;;;;;;;25.20;10.57;;;;;;;;;;5033101;28;20017;-86
2021/11/23 05:33:56;;;;;;;20.83;10.00;;;;;;;;;;5033144;28;20013;-86
2021/11/23 05:36:21;;;;;;;26.97;11.07;;;;;;;;;;5033370;28;20025;-86
2021/11/23 05:38:46;;;;;;;27.17;10.40;;;;;;;;;;5033322;28;20732;-86
2021/11/23 05:41:12;;;;;;;22.83;10.50;;;;;;;;;;5032776;28;20021;-86
2021/11/23 05:43:37;;;;;;;22.10;10.87;;;;;;;;;;5032823;28;20052;-86
2021/11/23 05:46:02;;;;;;;26.10;10.73;;;;;;;;;;5032972;28;20017;-86
2021/11/23 05:48:28;;;;;;;22.27;11.03;;;;;;;;;;5032942;28;20028;-86
2021/11/23 05:50:53;;;;;;;25.53;11.77;;;;;;;;;;5033018;28;20063;-86
2021/11/23 05:53:18;;;;;;;23.47;11.13;;;;;;;;;;5032958;28;20078;-86
2021/11/23 05:55:43;;;;;;;22.87;10.70;;;;;;;;;;5031761;28;20385;-86
2021/11/23 05:58:08;;;;;;;26.47;11.40;;;;;;;;;;5032957;28;20053;-86
2021/11/23 06:00:34;;;;;;;22.90;10.43;;;;;;;;;;5032406;28;20491;-86
2021/11/23 06:02:59;;;;;;;22.33;10.67;;;;;;;;;;5033599;28;20028;-86
2021/11/23 06:05:25;;;;;;;23.93;11.33;;;;;;;;;;5032662;28;20465;-86
2021/11/23 06:07:50;;;;;;;23.40;11.57;;;;;;;;;;5032398;28;20029;-86
2021/11/23 06:10:16;;;;;;;24.00;11.27;;;;;;;;;;5032657;28;20032;-86
2021/11/23 06:12:41;;;;;;;20.60;11.17;;;;;;;;;;5032257;28;20017;-86
2021/11/23 06:15:09;;;;;;;30.13;11.17;;;;;;;;;;5032295;28;20425;-86
2021/11/23 06:17:34;;;;;;;22.27;11.00;;;;;;;;;;5032296;28;20440;-86
2021/11/23 06:20:00;;;;;;;23.03;10.60;;;;;;;;;;5032067;28;20049;-86
2021/11/23 06:22:25;;;;;;;22.60;11.63;;;;;;;;;;5033762;28;20430;-86
2021/11/23 06:24:51;;;;;;;30.77;12.83;;;;;;;;;;5032066;28;20044;-86
2021/11/23 06:27:16;;;;;;;23.13;11.60;;;;;;;;;;5032207;28;20064;-86
2021/11/23 06:29:41;;;;;;;24.50;12.67;;;;;;;;;;5032232;28;20021;-86
2021/11/23 06:32:06;;;;;;;24.17;11.47;;;;;;;;;;5032847;28;20151;-86
2021/11/23 06:34:32;;;;;;;25.27;10.97;;;;;;;;;;5032116;28;20033;-86
2021/11/23 06:36:58;;;;;;;22.93;11.83;;;;;;;;;;5031943;28;20443;-86
2021/11/23 06:39:23;;;;;;;24.53;10.97;;;;;;;;;;5032104;28;20013;-86
2021/11/23 06:41:49;;;;;;;22.30;11.13;;;;;;;;;;5032051;28;20013;-86
2021/11/23 06:44:14;;;;;;;20.33;10.23;;;;;;;;;;5033192;28;20017;-86
2021/11/23 06:46:39;;;;;;;23.43;10.90;;;;;;;;;;5031954;28;20029;-86
2021/11/23 06:49:04;;;;;;;28.97;13.33;;;;;;;;;;5031467;28;20044;-86
2021/11/23 06:51:30;;;;;;;27.43;12.80;;;;;;;;;;5031828;28;20021;-86
2021/11/23 06:53:55;;;;;;;24.03;11.07;;;;;;;;;;5031963;28;20064;-86
2021/11/23 06:56:21;;;;;;;28.53;13.70;;;;;;;;;;5031930;28;20021;-86
2021/11/23 06:58:47;;;;;;;25.63;13.10;;;;;;;;;;5031779;28;20630;-86
2021/11/23 07:01:12;;;;;;;25.07;12.00;;;;;;;;;;5030690;28;20031;-86
2021/11/23 07:03:37;;;;;;;23.70;12.07;;;;;;;;;;5064384;28;20029;-86
2021/11/23 07:06:03;;;;;;;23.77;11.40;;;;;;;;;;5030588;28;20025;-85
2021/11/23 07:08:28;;;;;;;22.73;12.13;;;;;;;;;;5030673;28;20021;-85
2021/11/23 07:10:53;;;;;;;20.40;10.70;;;;;;;;;;5030372;28;20022;-85
2021/11/23 07:13:19;;;;;;;25.50;11.93;;;;;;;;;;5031409;28;20017;-86
2021/11/23 07:15:44;;;;;;;25.67;12.20;;;;;;;;;;5031265;28;20083;-86
2021/11/23 07:18:09;;;;;;;31.13;13.37;;;;;;;;;;5031215;28;20419;-86
2021/11/23 07:20:35;;;;;;;26.57;12.80;;;;;;;;;;5031676;28;20017;-85
2021/11/23 07:23:00;;;;;;;24.23;11.03;;;;;;;;;;5030944;28;20025;-86
2021/11/23 07:25:25;;;;;;;27.90;12.33;;;;;;;;;;5032853;28;20417;-86
2021/11/23 07:27:50;;;;;;;26.80;11.70;;;;;;;;;;5032607;28;20104;-86
2021/11/23 07:30:16;;;;;;;23.57;10.70;;;;;;;;;;5031227;28;20056;-86
2021/11/23 07:32:42;;;;;;;26.07;11.37;;;;;;;;;;5031198;28;20030;-85
2021/11/23 07:35:07;;;;;;;23.83;10.57;;;;;;;;;;5031934;28;20487;-85
2021/11/23 07:37:40;;;;;;;24.30;11.10;;;;;;;;;;5032166;28;20032;-85
2021/11/23 07:40:05;;;;;;;27.50;12.93;;;;;;;;;;5029924;28;20101;-85
2021/11/23 07:42:30;;;;;;;25.53;12.63;;;;;;;;;;5030708;28;20047;-86
2021/11/23 07:44:55;;;;;;;33.40;13.60;;;;;;;;;;5032406;28;20018;-86
2021/11/23 07:47:21;;;;;;;26.50;12.90;;;;;;;;;;5031261;28;20022;-86
2021/11/23 07:49:46;;;;;;;24.23;12.70;;;;;;;;;;5029923;28;20026;-86
2021/11/23 07:52:15;;;;;;;33.40;13.03;;;;;;;;;;5030294;28;20032;-85
2021/11/23 07:54:40;;;;;;;26.93;12.40;;;;;;;;;;5031186;28;20025;-85
2021/11/23 07:57:05;;;;;;;29.30;13.87;;;;;;;;;;5030626;28;20401;-85
2021/11/23 07:59:31;;;;;;;29.17;12.90;;;;;;;;;;5030904;28;20392;-86
2021/11/23 08:01:56;;;;;;;25.07;12.80;;;;;;;;;;5030886;28;20108;-85
2021/11/23 08:04:21;;;;;;;22.40;11.27;;;;;;;;;;5026116;28;20017;-85
2021/11/23 08:06:46;;;;;;;22.63;11.87;;;;;;;;;;5030960;28;20109;-86
2021/11/23 08:09:11;;;;;;;24.53;12.70;;;;;;;;;;5030933;28;20025;-85
2021/11/23 08:11:37;;;;;;;24.87;12.20;;;;;;;;;;5031043;28;20029;-86
2021/11/23 08:14:02;;;;;;;25.03;11.60;;;;;;;;;;5030870;28;20033;-86
2021/11/23 08:16:27;;;;;;;26.30;12.00;;;;;;;;;;5032058;28;20354;-85
2021/11/23 08:18:52;;;;;;;23.83;12.50;;;;;;;;;;5032814;28;20017;-86
2021/11/23 08:21:18;;;;;;;26.37;12.20;;;;;;;;;;5034214;28;20074;-86
2021/11/23 08:23:44;;;;;;;27.03;12.60;;;;;;;;;;5034695;28;20019;-86
2021/11/23 08:26:09;;;;;;;26.73;11.47;;;;;;;;;;5034220;28;20607;-85
2021/11/23 08:28:37;;;;;;;27.07;12.87;;;;;;;;;;5034532;28;20045;-86
2021/11/23 08:31:02;;;;;;;27.47;13.60;;;;;;;;;;5033964;28;20017;-86
2021/11/23 08:33:27;;;;;;;27.97;13.37;;;;;;;;;;5034294;28;20018;-86
2021/11/23 08:35:52;;;;;;;33.97;14.80;;;;;;;;;;5034511;28;20022;-86
2021/11/23 08:38:18;;;;;;;23.87;13.13;;;;;;;;;;5035630;28;20112;-86
2021/11/23 08:40:43;;;;;;;29.90;13.40;;;;;;;;;;5033967;28;20025;-86
2021/11/23 08:43:10;;;;;;;29.70;12.37;;;;;;;;;;5034268;28;20017;-86
2021/11/23 08:45:35;;;;;;;24.70;12.67;;;;;;;;;;5033974;28;20082;-86
2021/11/23 08:48:01;;;;;;;23.80;11.60;;;;;;;;;;5034348;28;20025;-86
2021/11/23 08:50:27;;;;;;;26.33;12.50;;;;;;;;;;5033872;28;20400;-86
2021/11/23 08:52:52;;;;;;;27.67;12.03;;;;;;;;;;5034272;28;20017;-86
2021/11/23 08:55:17;;;;;;;25.83;12.40;;;;;;;;;;5033740;28;20485;-87
2021/11/23 08:57:42;;;;;;;25.50;11.43;;;;;;;;;;5034323;28;20481;-86
2021/11/23 09:00:17;;;;;;;19.90;11.70;;;;;;;;;;5032818;28;20017;-86
2021/11/23 09:02:44;;;;;;;24.20;11.80;;;;;;;;;;5034650;28;20016;-86
2021/11/23 09:05:10;;;;;;;25.53;12.60;;;;;;;;;;5034519;28;20017;-87
2021/11/23 09:07:36;;;;;;;28.30;12.70;;;;;;;;;;5034456;28;20037;-87
2021/11/23 09:10:02;;;;;;;26.03;12.97;;;;;;;;;;5033508;28;20025;-87
2021/11/23 09:12:27;;;;;;;30.10;11.90;;;;;;;;;;5033521;28;20022;-87
2021/11/23 09:14:52;;;;;;;26.43;12.77;;;;;;;;;;5034649;28;20020;-87
2021/11/23 09:17:17;;;;;;;30.37;13.87;;;;;;;;;;5033655;28;20088;-86
2021/11/23 09:19:42;;;;;;;24.60;13.73;;;;;;;;;;5033403;28;20427;-87
2021/11/23 09:22:08;;;;;;;28.50;14.17;;;;;;;;;;5033514;28;20481;-86
2021/11/23 09:24:33;;;;;;;26.17;13.50;;;;;;;;;;5032329;28;20021;-86
2021/11/23 09:26:58;;;;;;;28.23;14.20;;;;;;;;;;5036677;28;20024;-87
2021/11/23 09:29:24;;;;;;;29.90;14.07;;;;;;;;;;5033097;28;20074;-86
2021/11/23 09:31:49;;;;;;;28.83;13.83;;;;;;;;;;5033013;28;20075;-87
2021/11/23 09:34:15;;;;;;;28.23;14.33;;;;;;;;;;5038763;28;20543;-86
2021/11/23 09:36:41;;;;;;;29.00;14.27;;;;;;;;;;5033373;28;20045;-86
2021/11/23 09:39:06;;;;;;;30.70;14.93;;;;;;;;;;5032776;28;20018;-87
2021/11/23 09:41:33;;;;;;;30.80;15.03;;;;;;;;;;5033272;28;20021;-87
2021/11/23 09:43:58;;;;;;;32.53;16.17;;;;;;;;;;5032511;28;20022;-86
2021/11/23 09:46:24;;;;;;;33.20;17.33;;;;;;;;;;5032467;28;20420;-87
2021/11/23 09:48:49;;;;;;;33.03;16.47;;;;;;;;;;5065589;28;20031;-86
2021/11/23 09:51:16;;;;;;;43.23;18.83;;;;;;;;;;5032738;28;20076;-87
2021/11/23 09:53:42;;;;;;;35.10;16.80;;;;;;;;;;5032686;28;20019;-86
2021/11/23 09:56:07;;;;;;;38.23;17.03;;;;;;;;;;5032642;28;20017;-86
2021/11/23 09:58:33;;;;;;;39.50;17.67;;;;;;;;;;5032898;28;20013;-87
2021/11/23 10:01:03;;;;;;;37.13;17.90;;;;;;;;;;5033116;28;20029;-87
2021/11/23 10:03:30;;;;;;;37.87;18.30;;;;;;;;;;5032707;28;20362;-87
2021/11/23 10:06:05;;;;;;;39.90;19.67;;;;;;;;;;5032361;28;20052;-88
2021/11/23 10:08:31;;;;;;;34.00;15.70;;;;;;;;;;5032836;28;20022;-87
2021/11/23 10:10:57;;;;;;;37.33;16.23;;;;;;;;;;5032732;28;20035;-87
2021/11/23 10:13:22;;;;;;;39.20;16.90;;;;;;;;;;5032706;28;20018;-87
2021/11/23 10:15:49;;;;;;;41.87;17.73;;;;;;;;;;5032690;28;20032;-87
2021/11/23 10:18:19;;;;;;;34.00;16.93;;;;;;;;;;5065573;28;20018;-88
2021/11/23 10:20:44;;;;;;;38.60;17.20;;;;;;;;;;5032369;28;20350;-88
2021/11/23 10:23:18;;;;;;;40.13;17.47;;;;;;;;;;5033699;28;20009;-87
2021/11/23 10:25:44;;;;;;;33.67;16.60;;;;;;;;;;5032605;28;20014;-88
2021/11/23 10:28:10;;;;;;;39.97;17.30;;;;;;;;;;5033555;28;20108;-88
2021/11/23 10:30:40;;;;;;;41.10;17.27;;;;;;;;;;5031182;28;20167;-87
2021/11/23 10:33:06;;;;;;;37.90;16.17;;;;;;;;;;5035211;28;20056;-89
2021/11/23 10:35:32;;;;;;;36.80;17.57;;;;;;;;;;5032833;28;20021;-87
2021/11/23 10:37:59;;;;;;;38.73;17.17;;;;;;;;;;5031315;28;20033;-88
2021/11/23 10:40:28;;;;;;;37.63;17.33;;;;;;;;;;5032159;28;20022;-88
2021/11/23 10:42:58;;;;;;;37.20;14.93;;;;;;;;;;5025195;28;20028;-88
2021/11/23 10:45:23;;;;;;;32.80;15.83;;;;;;;;;;5031904;28;20448;-87
2021/11/23 10:47:50;;;;;;;37.00;16.37;;;;;;;;;;5031825;28;20030;-86
2021/11/23 10:50:17;;;;;;;39.87;17.40;;;;;;;;;;5031879;28;20032;-87
2021/11/23 10:52:45;;;;;;;34.27;17.47;;;;;;;;;;5032034;28;20024;-87
2021/11/23 10:55:16;;;;;;;35.47;16.57;;;;;;;;;;5032162;28;20117;-87
2021/11/23 10:57:42;;;;;;;42.77;19.10;;;;;;;;;;5031832;28;20036;-87
2021/11/23 11:00:09;;;;;;;36.30;16.97;;;;;;;;;;5032909;28;20469;-87
2021/11/23 11:02:35;;;;;;;31.40;16.20;;;;;;;;;;5031741;28;20544;-87
2021/11/23 11:05:01;;;;;;;34.77;16.80;;;;;;;;;;5031669;28;20020;-87
2021/11/23 11:07:27;;;;;;;39.90;17.20;;;;;;;;;;5031756;28;20480;-86
2021/11/23 11:09:52;;;;;;;30.53;15.07;;;;;;;;;;5032029;28;20486;-87
2021/11/23 11:12:17;;;;;;;40.47;18.20;;;;;;;;;;5030846;28;20026;-87
2021/11/23 11:14:43;;;;;;;38.53;17.90;;;;;;;;;;5030454;28;20037;-87
2021/11/23 11:17:09;;;;;;;34.50;16.83;;;;;;;;;;5064785;28;20061;-86
2021/11/23 11:19:42;;;;;;;37.40;17.70;;;;;;;;;;5031587;28;20024;-87
2021/11/23 11:22:08;;;;;;;35.23;16.80;;;;;;;;;;5031836;28;20029;-87
2021/11/23 11:27:20;;;;;;;30.30;15.57;;;;;;;;;;5029671;28;20029;-87
2021/11/23 11:29:45;;;;;;;38.87;17.80;;;;;;;;;;5027608;28;20041;-87
2021/11/23 11:32:29;;;;;;;34.23;16.70;;;;;;;;;;5031259;28;20483;-87
2021/11/23 11:34:54;;;;;;;36.80;16.40;;;;;;;;;;5047754;28;20079;-87
2021/11/23 11:37:20;;;;;;;36.57;16.87;;;;;;;;;;5033517;28;20436;-87
2021/11/23 11:39:52;;;;;;;37.53;17.63;;;;;;;;;;5040736;28;20018;-87
2021/11/23 11:42:20;;;;;;;41.05;17.17;;;;;;;;;;5017863;28;20109;-87
2021/11/23 11:44:53;;;;;;;36.90;16.20;;;;;;;;;;5033068;28;20076;-87
2021/11/23 11:47:28;;;;;;;32.80;16.63;;;;;;;;;;5031703;28;20474;-87
2021/11/23 11:49:55;;;;;;;44.57;17.83;;;;;;;;;;5041287;28;20465;-87
2021/11/23 11:52:22;;;;;;;46.83;18.50;;;;;;;;;;5030506;28;20028;-87
2021/11/23 11:55:26;;;;;;;33.23;16.50;;;;;;;;;;5033124;28;20491;-87
2021/11/23 11:57:52;;;;;;;33.00;15.23;;;;;;;;;;4975266;28;20039;-87
2021/11/23 12:00:23;;;;;;;31.30;15.50;;;;;;;;;;4957956;28;20467;-86
2021/11/23 12:02:49;;;;;;;41.57;17.50;;;;;;;;;;5008734;28;20021;-87
2021/11/23 12:05:15;;;;;;;41.17;16.70;;;;;;;;;;5048795;28;20104;-86
2021/11/23 12:07:40;;;;;;;46.10;17.63;;;;;;;;;;5036173;28;20646;-86
2021/11/23 12:10:25;;;;;;;38.83;17.97;;;;;;;;;;5035017;28;20025;-87
2021/11/23 12:12:57;;;;;;;38.97;16.80;;;;;;;;;;5034583;28;20059;-86
2021/11/23 12:15:34;;;;;;;31.77;14.32;;;;;;;;;;5035061;28;20026;-87
2021/11/23 12:18:12;;;;;;;32.63;16.40;;;;;;;;;;5035726;28;20033;-87
2021/11/23 12:20:47;;;;;;;35.73;15.67;;;;;;;;;;5034509;28;20024;-87
2021/11/23 12:23:42;;;;;;;34.27;15.33;;;;;;;;;;5034447;28;20014;-87
2021/11/23 12:26:07;;;;;;;32.43;14.90;;;;;;;;;;5020438;28;20087;-86
2021/11/23 12:28:33;;;;;;;35.03;14.87;;;;;;;;;;5034025;28;20029;-87
2021/11/23 12:31:04;;;;;;;29.70;14.57;;;;;;;;;;5034757;28;20362;-87
2021/11/23 12:33:29;;;;;;;31.77;16.37;;;;;;;;;;5035118;28;20098;-87
2021/11/23 12:35:55;;;;;;;31.80;15.53;;;;;;;;;;5035765;28;20096;-87
2021/11/23 12:38:24;;;;;;;34.43;15.30;;;;;;;;;;5034599;28;20095;-87
2021/11/23 12:40:50;;;;;;;33.10;15.70;;;;;;;;;;5035655;28;20025;-87
2021/11/23 12:43:16;;;;;;;35.47;16.53;;;;;;;;;;5043548;28;20086;-87
2021/11/23 12:45:42;;;;;;;38.80;16.73;;;;;;;;;;5036983;28;20017;-87
2021/11/23 12:48:12;;;;;;;44.00;17.77;;;;;;;;;;5034435;28;20396;-87
2021/11/23 12:50:38;;;;;;;32.57;16.50;;;;;;;;;;5034140;28;20013;-87
2021/11/23 12:53:11;;;;;;;33.67;17.20;;;;;;;;;;5034292;28;20025;-87
2021/11/23 12:55:36;;;;;;;36.57;17.10;;;;;;;;;;5033839;28;20025;-87
2021/11/23 12:58:02;;;;;;;42.47;17.00;;;;;;;;;;5034158;28;20056;-87
2021/11/23 13:00:27;;;;;;;42.70;17.30;;;;;;;;;;5034197;28;20443;-87
2021/11/23 13:02:55;;;;;;;34.03;16.97;;;;;;;;;;5033612;28;20070;-87
2021/11/23 13:05:24;;;;;;;35.53;17.60;;;;;;;;;;5029789;28;20029;-87
2021/11/23 13:07:54;;;;;;;42.07;17.70;;;;;;;;;;5047964;28;20130;-87
2021/11/23 13:10:21;;;;;;;36.53;16.50;;;;;;;;;;5033960;28;20025;-87
2021/11/23 13:12:48;;;;;;;32.27;15.80;;;;;;;;;;5033773;28;20112;-88
2021/11/23 13:15:13;;;;;;;35.60;15.53;;;;;;;;;;5033917;28;20108;-88
2021/11/23 13:17:42;;;;;;;39.13;16.10;;;;;;;;;;5033659;28;20159;-87
2021/11/23 13:20:08;;;;;;;37.97;16.57;;;;;;;;;;5033764;28;20100;-87
2021/11/23 13:22:37;;;;;;;36.13;16.57;;;;;;;;;;5033324;28;20385;-88
2021/11/23 13:25:03;;;;;;;40.87;16.90;;;;;;;;;;5033505;28;20457;-87
2021/11/23 13:27:30;;;;;;;33.47;15.27;;;;;;;;;;5066746;28;20032;-88
2021/11/23 13:29:55;;;;;;;39.13;16.60;;;;;;;;;;5034964;28;20021;-87
2021/11/23 13:32:20;;;;;;;36.73;16.67;;;;;;;;;;5033411;28;20071;-87
2021/11/23 13:34:45;;;;;;;40.83;16.43;;;;;;;;;;5033546;28;20021;-88
2021/11/23 13:37:11;;;;;;;35.80;15.87;;;;;;;;;;5034183;28;20031;-87
2021/11/23 13:39:37;;;;;;;42.83;16.47;;;;;;;;;;5033341;28;20105;-87
2021/11/23 13:42:02;;;;;;;36.43;16.03;;;;;;;;;;5033412;28;20045;-87
2021/11/23 13:44:32;;;;;;;39.90;16.47;;;;;;;;;;5033438;28;20500;-87
2021/11/23 13:46:59;;;;;;;36.70;16.30;;;;;;;;;;5034605;28;20116;-88
2021/11/23 13:49:27;;;;;;;37.27;16.03;;;;;;;;;;5033219;28;20013;-88
2021/11/23 13:52:06;;;;;;;33.33;15.87;;;;;;;;;;5032935;28;20039;-88
2021/11/23 13:54:57;;;;;;;37.10;16.40;;;;;;;;;;5034929;28;20028;-88
2021/11/23 13:57:24;;;;;;;39.30;18.20;;;;;;;;;;5029840;28;20037;-88
2021/11/23 13:59:53;;;;;;;37.43;16.77;;;;;;;;;;5032969;28;20020;-87
2021/11/23 14:02:19;;;;;;;37.20;17.07;;;;;;;;;;5033104;28;20025;-88
2021/11/23 14:04:45;;;;;;;35.17;16.50;;;;;;;;;;5032348;28;20010;-88
2021/11/23 14:07:11;;;;;;;34.37;17.60;;;;;;;;;;5046378;28;20525;-88
2021/11/23 14:09:53;;;;;;;36.60;17.40;;;;;;;;;;5032172;28;20022;-87
2021/11/23 14:12:20;;;;;;;39.25;16.60;;;;;;;;;;5037891;28;20021;-87
2021/11/23 14:14:58;;;;;;;33.97;17.00;;;;;;;;;;5032753;28;20031;-87
2021/11/23 14:17:44;;;;;;;31.80;16.20;;;;;;;;;;5033217;28;20057;-88